createdAt,value
2022-10-19T00:00:57.615Z,187.10
2022-10-19T00:01:57.629Z,227.60
2022-10-19T00:02:57.595Z,242.80
2022-10-19T00:03:57.597Z,226.60
2022-10-19T00:04:57.620Z,270.80
2022-10-19T00:05:57.566Z,398.20
2022-10-19T00:06:57.596Z,449.60
2022-10-19T00:07:57.553Z,473.90
2022-10-19T00:08:57.556Z,458.90
2022-10-19T00:09:57.556Z,512.30
2022-10-19T00:10:57.526Z,355.90
2022-10-19T00:11:57.528Z,418.00
2022-10-19T00:12:57.512Z,416.20
2022-10-19T00:13:57.510Z,470.90
2022-10-19T00:14:57.506Z,509.10
2022-10-19T00:15:57.965Z,513.30
2022-10-19T00:16:57.486Z,523.70
2022-10-19T00:17:57.480Z,532.10
2022-10-19T00:18:57.478Z,359.00
2022-10-19T00:19:57.467Z,369.10
2022-10-19T00:20:58.116Z,330.90
2022-10-19T00:21:57.469Z,248.50
2022-10-19T00:22:57.470Z,410.50
2022-10-19T00:23:57.449Z,386.80
2022-10-19T00:24:57.427Z,333.00
2022-10-19T00:25:57.424Z,182.20
2022-10-19T00:26:57.446Z,545.20
2022-10-19T00:27:57.408Z,498.50
2022-10-19T00:28:57.491Z,555.30
2022-10-19T00:29:57.446Z,395.80
2022-10-19T00:30:57.385Z,574.60
2022-10-19T00:31:57.386Z,550.50
2022-10-19T00:32:57.381Z,719.40
2022-10-19T00:33:57.392Z,583.30
2022-10-19T00:34:57.396Z,550.40
2022-10-19T00:35:57.363Z,488.20
2022-10-19T00:36:57.341Z,829.10
2022-10-19T00:37:57.347Z,750.90
2022-10-19T00:38:57.374Z,706.70
2022-10-19T00:39:57.326Z,528.80
2022-10-19T00:40:57.319Z,488.30
2022-10-19T00:41:57.322Z,629.80
2022-10-19T00:42:57.299Z,416.80
2022-10-19T00:43:57.314Z,520.50
2022-10-19T00:44:57.281Z,422.50
2022-10-19T00:45:57.274Z,467.90
2022-10-19T00:46:57.396Z,527.80
2022-10-19T00:47:57.266Z,450.90
2022-10-19T00:48:57.261Z,419.80
2022-10-19T00:49:57.884Z,505.10
2022-10-19T00:50:57.244Z,675.80
2022-10-19T00:51:57.797Z,640.50
2022-10-19T00:52:57.433Z,527.40
2022-10-19T00:53:58.151Z,547.50
2022-10-19T00:54:57.253Z,496.10
2022-10-19T00:55:57.218Z,479.90
2022-10-19T00:56:57.219Z,318.70
2022-10-19T00:57:57.216Z,518.70
2022-10-19T00:58:57.248Z,504.40
2022-10-19T00:59:57.181Z,537.50
2022-10-19T01:00:57.269Z,548.20
2022-10-19T01:01:57.167Z,553.90
2022-10-19T01:02:57.169Z,522.40
2022-10-19T01:03:57.151Z,458.70
2022-10-19T01:04:57.167Z,488.30
2022-10-19T01:05:57.149Z,387.40
2022-10-19T01:06:57.135Z,493.10
2022-10-19T01:07:57.119Z,484.30
2022-10-19T01:08:57.126Z,377.90
2022-10-19T01:09:57.131Z,300.30
2022-10-19T01:10:57.117Z,415.20
2022-10-19T01:11:57.523Z,371.00
2022-10-19T01:12:57.098Z,319.00
2022-10-19T01:13:57.075Z,264.20
2022-10-19T01:14:57.072Z,343.00
2022-10-19T01:15:57.085Z,329.50
2022-10-19T01:16:57.061Z,253.40
2022-10-19T01:17:57.053Z,391.40
2022-10-19T01:18:57.053Z,321.40
2022-10-19T01:19:57.042Z,364.90
2022-10-19T01:20:57.025Z,314.40
2022-10-19T01:21:57.035Z,368.60
2022-10-19T01:22:57.003Z,301.00
2022-10-19T01:23:57.003Z,344.10
2022-10-19T01:24:57.042Z,365.10
2022-10-19T01:25:56.993Z,290.00
2022-10-19T01:26:57.017Z,302.20
2022-10-19T01:27:56.970Z,265.40
2022-10-19T01:28:57.006Z,275.60
2022-10-19T01:29:56.962Z,353.50
2022-10-19T01:30:56.942Z,333.60
2022-10-19T01:31:56.958Z,392.50
2022-10-19T01:32:56.930Z,319.90
2022-10-19T01:34:56.927Z,306.00
2022-10-19T01:35:56.906Z,360.00
2022-10-19T01:36:56.902Z,353.80
2022-10-19T01:37:56.913Z,321.70
2022-10-19T01:38:56.885Z,372.10
2022-10-19T01:39:56.884Z,362.60
2022-10-19T01:40:56.888Z,289.40
2022-10-19T01:41:56.861Z,326.70
2022-10-19T01:42:56.904Z,364.10
2022-10-19T01:43:56.847Z,386.00
2022-10-19T01:44:56.844Z,338.20
2022-10-19T01:45:56.842Z,343.40
2022-10-19T01:46:56.841Z,305.20
2022-10-19T01:47:56.852Z,329.40
2022-10-19T01:48:56.877Z,338.10
2022-10-19T01:49:56.954Z,387.50
2022-10-19T01:50:56.808Z,283.50
2022-10-19T01:52:56.807Z,300.10
2022-10-19T01:53:56.789Z,324.10
2022-10-19T01:54:56.874Z,340.40
2022-10-19T01:55:56.766Z,327.40
2022-10-19T01:56:56.766Z,311.80
2022-10-19T01:57:56.836Z,281.20
2022-10-19T01:58:56.778Z,279.30
2022-10-19T01:59:56.747Z,334.10
2022-10-19T02:00:56.897Z,317.30
2022-10-19T02:01:57.002Z,369.10
2022-10-19T02:02:56.721Z,334.20
2022-10-19T02:03:56.723Z,321.60
2022-10-19T02:04:56.719Z,264.10
2022-10-19T02:05:56.701Z,308.40
2022-10-19T02:06:56.706Z,408.30
2022-10-19T02:07:56.697Z,225.30
2022-10-19T02:08:56.678Z,365.10
2022-10-19T02:09:56.697Z,473.40
2022-10-19T02:10:56.677Z,396.30
2022-10-19T02:11:57.252Z,263.70
2022-10-19T02:12:56.656Z,398.20
2022-10-19T02:13:56.658Z,459.90
2022-10-19T02:14:56.671Z,387.50
2022-10-19T02:15:56.638Z,218.70
2022-10-19T02:16:56.651Z,307.40
2022-10-19T02:17:56.640Z,247.20
2022-10-19T02:18:56.618Z,285.00
2022-10-19T02:19:56.800Z,312.80
2022-10-19T02:20:56.597Z,445.00
2022-10-19T02:21:56.606Z,501.70
2022-10-19T02:22:56.606Z,444.10
2022-10-19T02:23:56.584Z,381.80
2022-10-19T02:24:56.573Z,355.20
2022-10-19T02:25:56.598Z,303.30
2022-10-19T02:26:56.564Z,284.80
2022-10-19T02:27:56.556Z,249.80
2022-10-19T02:28:56.576Z,370.80
2022-10-19T02:29:56.542Z,321.50
2022-10-19T02:30:56.563Z,350.50
2022-10-19T02:31:56.545Z,500.80
2022-10-19T02:32:56.523Z,365.10
2022-10-19T02:33:56.530Z,313.40
2022-10-19T02:34:56.502Z,194.70
2022-10-19T02:35:56.501Z,238.20
2022-10-19T02:36:56.511Z,255.40
2022-10-19T02:37:56.495Z,183.90
2022-10-19T02:38:56.478Z,247.80
2022-10-19T02:39:56.480Z,288.50
2022-10-19T02:40:56.463Z,232.80
2022-10-19T02:41:56.448Z,203.30
2022-10-19T02:42:56.463Z,313.60
2022-10-19T02:43:56.625Z,317.40
2022-10-19T02:44:56.431Z,375.70
2022-10-19T02:45:56.438Z,386.80
2022-10-19T02:46:56.436Z,273.20
2022-10-19T02:47:56.409Z,373.00
2022-10-19T02:48:56.425Z,275.40
2022-10-19T02:49:56.395Z,292.10
2022-10-19T02:50:56.411Z,367.30
2022-10-19T02:51:56.383Z,204.70
2022-10-19T02:52:56.381Z,329.40
2022-10-19T02:53:57.401Z,342.10
2022-10-19T02:54:56.377Z,344.50
2022-10-19T02:55:56.381Z,329.80
2022-10-19T02:56:56.349Z,382.60
2022-10-19T02:57:56.332Z,341.80
2022-10-19T02:58:56.345Z,392.20
2022-10-19T02:59:56.320Z,348.30
2022-10-19T03:00:56.385Z,274.20
2022-10-19T03:01:56.564Z,250.00
2022-10-19T03:02:56.327Z,334.10
2022-10-19T03:03:56.302Z,231.80
2022-10-19T03:04:56.310Z,296.60
2022-10-19T03:05:56.277Z,267.70
2022-10-19T03:06:56.297Z,316.00
2022-10-19T03:07:56.267Z,349.10
2022-10-19T03:08:56.263Z,252.70
2022-10-19T03:09:56.274Z,245.60
2022-10-19T03:10:56.257Z,291.10
2022-10-19T03:11:56.349Z,365.00
2022-10-19T03:12:56.246Z,296.10
2022-10-19T03:13:56.241Z,213.30
2022-10-19T03:14:56.228Z,233.90
2022-10-19T03:15:56.223Z,304.30
2022-10-19T03:16:56.338Z,294.60
2022-10-19T03:17:56.223Z,289.00
2022-10-19T03:18:56.736Z,300.10
2022-10-19T03:19:56.183Z,351.80
2022-10-19T03:20:58.867Z,205.70
2022-10-19T03:21:56.165Z,141.60
2022-10-19T03:22:56.189Z,235.50
2022-10-19T03:23:56.164Z,186.80
2022-10-19T03:24:56.143Z,207.80
2022-10-19T03:25:56.134Z,213.30
2022-10-19T03:26:56.126Z,236.40
2022-10-19T03:27:56.125Z,160.70
2022-10-19T03:28:56.166Z,329.60
2022-10-19T03:29:56.119Z,262.00
2022-10-19T03:30:56.123Z,150.30
2022-10-19T03:31:56.095Z,236.90
2022-10-19T03:32:56.090Z,311.00
2022-10-19T03:33:56.115Z,224.30
2022-10-19T03:34:56.104Z,226.90
2022-10-19T03:35:56.067Z,182.90
2022-10-19T03:36:56.079Z,144.30
2022-10-19T03:37:56.052Z,127.90
2022-10-19T03:38:56.050Z,126.10
2022-10-19T03:39:56.038Z,128.10
2022-10-19T03:40:56.042Z,112.00
2022-10-19T03:41:56.047Z,109.10
2022-10-19T03:42:56.025Z,142.70
2022-10-19T03:43:56.076Z,128.30
2022-10-19T03:44:56.003Z,155.20
2022-10-19T03:45:56.008Z,102.60
2022-10-19T03:46:56.767Z,157.20
2022-10-19T03:47:55.984Z,159.00
2022-10-19T03:48:55.980Z,185.70
2022-10-19T03:49:55.972Z,170.30
2022-10-19T03:50:55.991Z,126.40
2022-10-19T03:51:55.973Z,144.70
2022-10-19T03:52:56.011Z,90.80
2022-10-19T03:53:56.167Z,95.30
2022-10-19T03:54:55.957Z,94.90
2022-10-19T03:55:55.958Z,102.20
2022-10-19T03:56:55.955Z,79.20
2022-10-19T03:57:55.930Z,88.20
2022-10-19T03:58:55.901Z,81.20
2022-10-19T03:59:55.903Z,89.70
2022-10-19T04:00:56.655Z,98.20
2022-10-19T04:01:55.898Z,106.60
2022-10-19T04:02:55.881Z,105.60
2022-10-19T04:03:55.879Z,93.20
2022-10-19T04:04:55.875Z,68.60
2022-10-19T04:05:55.884Z,98.40
2022-10-19T04:06:55.865Z,109.10
2022-10-19T04:07:55.840Z,66.90
2022-10-19T04:08:55.839Z,121.10
2022-10-19T04:09:55.843Z,86.10
2022-10-19T04:10:55.820Z,79.10
2022-10-19T04:11:55.854Z,88.90
2022-10-19T04:12:55.802Z,96.30
2022-10-19T04:13:55.836Z,91.70
2022-10-19T04:14:57.773Z,88.80
2022-10-19T04:15:55.789Z,68.40
2022-10-19T04:16:55.769Z,82.80
2022-10-19T04:17:55.779Z,75.50
2022-10-19T04:18:55.771Z,80.00
2022-10-19T04:19:55.761Z,109.50
2022-10-19T04:20:55.747Z,113.20
2022-10-19T04:21:55.745Z,285.40
2022-10-19T04:22:55.757Z,202.70
2022-10-19T04:23:55.717Z,100.90
2022-10-19T04:24:55.872Z,190.00
2022-10-19T04:25:55.728Z,137.50
2022-10-19T04:26:55.696Z,229.10
2022-10-19T04:27:55.698Z,176.30
2022-10-19T04:28:55.752Z,185.60
2022-10-19T04:29:55.700Z,133.90
2022-10-19T04:30:55.673Z,271.80
2022-10-19T04:31:55.678Z,321.60
2022-10-19T04:32:55.670Z,451.80
2022-10-19T04:33:55.671Z,274.10
2022-10-19T04:34:55.661Z,321.10
2022-10-19T04:35:56.028Z,462.70
2022-10-19T04:36:55.672Z,380.40
2022-10-19T04:37:55.625Z,319.30
2022-10-19T04:38:55.656Z,342.20
2022-10-19T04:39:55.617Z,148.30
2022-10-19T04:40:55.597Z,218.90
2022-10-19T04:41:55.607Z,273.00
2022-10-19T04:42:55.626Z,220.20
2022-10-19T04:43:55.594Z,139.30
2022-10-19T04:44:55.604Z,168.50
2022-10-19T04:45:55.577Z,182.80
2022-10-19T04:46:55.580Z,443.50
2022-10-19T04:47:55.561Z,327.90
2022-10-19T04:48:55.578Z,322.50
2022-10-19T04:49:55.537Z,340.00
2022-10-19T04:50:55.533Z,198.40
2022-10-19T04:51:55.529Z,278.60
2022-10-19T04:52:55.528Z,174.10
2022-10-19T04:53:57.008Z,187.90
2022-10-19T04:54:55.541Z,418.30
2022-10-19T04:55:55.506Z,185.60
2022-10-19T04:56:55.524Z,254.40
2022-10-19T04:57:55.509Z,266.70
2022-10-19T04:58:55.491Z,177.00
2022-10-19T04:59:55.511Z,226.80
2022-10-19T05:00:55.524Z,99.00
2022-10-19T05:01:55.456Z,163.80
2022-10-19T05:02:55.450Z,108.70
2022-10-19T05:04:55.437Z,173.20
2022-10-19T05:05:55.435Z,178.50
2022-10-19T05:06:55.425Z,187.00
2022-10-19T05:07:55.418Z,316.00
2022-10-19T05:08:55.404Z,213.90
2022-10-19T05:09:55.401Z,124.30
2022-10-19T05:10:55.528Z,190.70
2022-10-19T05:11:55.386Z,240.70
2022-10-19T05:12:55.419Z,329.30
2022-10-19T05:13:55.376Z,207.90
2022-10-19T05:14:55.368Z,148.00
2022-10-19T05:15:55.360Z,92.80
2022-10-19T05:16:55.375Z,109.10
2022-10-19T05:17:55.339Z,140.30
2022-10-19T05:18:55.436Z,265.20
2022-10-19T05:19:55.329Z,141.90
2022-10-19T05:20:55.327Z,160.30
2022-10-19T05:21:55.317Z,124.40
2022-10-19T05:22:55.319Z,127.30
2022-10-19T05:23:55.307Z,123.70
2022-10-19T05:24:58.070Z,161.10
2022-10-19T05:25:55.283Z,142.00
2022-10-19T05:26:55.323Z,124.60
2022-10-19T05:27:55.273Z,182.40
2022-10-19T05:28:55.314Z,153.90
2022-10-19T05:29:55.314Z,157.30
2022-10-19T05:30:55.260Z,193.20
2022-10-19T05:31:56.043Z,189.30
2022-10-19T05:32:55.246Z,238.60
2022-10-19T05:33:55.349Z,195.60
2022-10-19T05:34:55.217Z,169.80
2022-10-19T05:36:00.409Z,123.40
2022-10-19T05:36:55.224Z,166.40
2022-10-19T05:37:55.207Z,112.50
2022-10-19T05:38:55.207Z,144.60
2022-10-19T05:39:55.205Z,63.70
2022-10-19T05:40:55.180Z,97.20
2022-10-19T05:41:55.192Z,89.50
2022-10-19T05:42:55.188Z,88.40
2022-10-19T05:43:55.160Z,132.00
2022-10-19T05:44:55.158Z,128.90
2022-10-19T05:45:55.147Z,165.40
2022-10-19T05:46:55.679Z,146.70
2022-10-19T05:47:55.142Z,90.70
2022-10-19T05:48:55.123Z,96.30
2022-10-19T05:49:55.115Z,92.20
2022-10-19T05:50:55.119Z,117.40
2022-10-19T05:51:55.872Z,86.60
2022-10-19T05:52:55.111Z,78.00
2022-10-19T05:53:55.099Z,65.10
2022-10-19T05:54:55.087Z,85.50
2022-10-19T05:55:55.191Z,132.10
2022-10-19T05:56:55.079Z,85.60
2022-10-19T05:57:55.068Z,94.10
2022-10-19T05:58:55.113Z,82.60
2022-10-19T05:59:55.066Z,86.60
2022-10-19T06:00:55.727Z,82.90
2022-10-19T06:01:55.082Z,83.00
2022-10-19T06:02:59.101Z,66.00
2022-10-19T06:03:55.021Z,89.90
2022-10-19T06:04:55.022Z,88.10
2022-10-19T06:05:55.004Z,78.50
2022-10-19T06:06:55.026Z,81.90
2022-10-19T06:07:55.008Z,70.40
2022-10-19T06:08:54.990Z,73.80
2022-10-19T06:09:54.992Z,76.40
2022-10-19T06:10:54.980Z,64.20
2022-10-19T06:11:54.977Z,62.10
2022-10-19T06:12:54.964Z,78.90
2022-10-19T06:13:54.951Z,83.80
2022-10-19T06:14:54.985Z,68.80
2022-10-19T06:15:54.942Z,77.30
2022-10-19T06:16:54.995Z,79.10
2022-10-19T06:17:54.931Z,60.90
2022-10-19T06:18:54.939Z,74.80
2022-10-19T06:19:54.919Z,69.80
2022-10-19T06:20:54.910Z,74.60
2022-10-19T06:21:54.895Z,79.50
2022-10-19T06:22:54.883Z,65.90
2022-10-19T06:23:54.898Z,83.20
2022-10-19T06:24:54.883Z,68.30
2022-10-19T06:25:54.863Z,67.00
2022-10-19T06:26:54.858Z,56.20
2022-10-19T06:27:54.901Z,63.80
2022-10-19T06:28:55.598Z,56.70
2022-10-19T06:29:54.842Z,58.50
2022-10-19T06:30:54.921Z,56.10
2022-10-19T06:31:54.820Z,58.40
2022-10-19T06:32:54.894Z,61.20
2022-10-19T06:33:56.018Z,58.40
2022-10-19T06:34:56.527Z,55.00
2022-10-19T06:35:54.811Z,58.90
2022-10-19T06:36:54.778Z,71.20
2022-10-19T06:37:54.777Z,80.80
2022-10-19T06:38:54.790Z,87.10
2022-10-19T06:39:54.841Z,82.40
2022-10-19T06:40:54.759Z,88.00
2022-10-19T06:41:54.747Z,102.10
2022-10-19T06:42:54.734Z,88.70
2022-10-19T06:43:54.732Z,99.10
2022-10-19T06:44:54.730Z,120.40
2022-10-19T06:45:54.726Z,94.80
2022-10-19T06:46:54.732Z,98.90
2022-10-19T06:47:54.712Z,82.40
2022-10-19T06:48:54.695Z,77.70
2022-10-19T06:49:54.697Z,74.20
2022-10-19T06:50:54.704Z,99.80
2022-10-19T06:51:54.703Z,92.90
2022-10-19T06:52:54.674Z,84.00
2022-10-19T06:53:57.004Z,54.80
2022-10-19T06:54:54.650Z,75.60
2022-10-19T06:55:54.639Z,71.50
2022-10-19T06:56:54.649Z,70.30
2022-10-19T06:57:54.641Z,78.40
2022-10-19T06:58:54.640Z,57.80
2022-10-19T06:59:54.633Z,70.10
2022-10-19T07:00:54.667Z,48.50
2022-10-19T07:01:54.619Z,50.00
2022-10-19T07:02:54.622Z,53.30
2022-10-19T07:03:54.651Z,55.50
2022-10-19T07:04:54.595Z,56.80
2022-10-19T07:05:54.577Z,55.50
2022-10-19T07:06:54.602Z,73.90
2022-10-19T07:07:54.633Z,52.80
2022-10-19T07:08:54.568Z,54.80
2022-10-19T07:09:54.572Z,57.30
2022-10-19T07:10:54.550Z,57.40
2022-10-19T07:11:54.550Z,61.20
2022-10-19T07:12:54.627Z,53.50
2022-10-19T07:13:54.519Z,55.70
2022-10-19T07:14:54.520Z,54.00
2022-10-19T07:15:54.529Z,57.40
2022-10-19T07:16:54.524Z,63.80
2022-10-19T07:17:54.502Z,56.50
2022-10-19T07:18:54.511Z,60.80
2022-10-19T07:19:54.534Z,59.70
2022-10-19T07:20:54.484Z,49.90
2022-10-19T07:21:54.475Z,54.90
2022-10-19T07:22:54.464Z,52.80
2022-10-19T07:23:54.488Z,54.00
2022-10-19T07:24:54.451Z,47.80
2022-10-19T07:25:54.437Z,44.40
2022-10-19T07:26:54.436Z,59.00
2022-10-19T07:27:54.426Z,58.20
2022-10-19T07:28:54.415Z,49.40
2022-10-19T07:29:54.431Z,41.10
2022-10-19T07:30:55.134Z,46.50
2022-10-19T07:31:54.401Z,46.20
2022-10-19T07:32:54.430Z,51.20
2022-10-19T07:33:54.382Z,48.50
2022-10-19T07:34:54.425Z,49.40
2022-10-19T07:35:54.373Z,58.00
2022-10-19T07:36:54.412Z,46.20
2022-10-19T07:37:54.361Z,60.20
2022-10-19T07:38:54.351Z,48.30
2022-10-19T07:39:54.355Z,48.30
2022-10-19T07:40:54.346Z,55.90
2022-10-19T07:41:54.341Z,44.00
2022-10-19T07:42:54.339Z,52.60
2022-10-19T07:43:54.321Z,48.20
2022-10-19T07:44:54.304Z,43.70
2022-10-19T07:45:54.323Z,41.10
2022-10-19T07:46:54.304Z,42.80
2022-10-19T07:47:54.288Z,43.40
2022-10-19T07:48:54.328Z,42.40
2022-10-19T07:49:54.270Z,44.40
2022-10-19T07:50:54.281Z,43.90
2022-10-19T07:51:54.331Z,47.60
2022-10-19T07:52:54.920Z,38.80
2022-10-19T07:53:54.246Z,33.40
2022-10-19T07:54:54.248Z,41.40
2022-10-19T07:55:54.241Z,49.30
2022-10-19T07:56:54.218Z,38.80
2022-10-19T07:57:54.220Z,37.60
2022-10-19T07:58:54.233Z,41.30
2022-10-19T07:59:54.199Z,29.40
2022-10-19T08:00:54.198Z,31.20
2022-10-19T08:01:54.262Z,33.60
2022-10-19T08:03:00.056Z,26.40
2022-10-19T08:05:01.057Z,28.80
2022-10-19T08:05:55.159Z,41.40
2022-10-19T08:06:54.176Z,27.80
2022-10-19T08:07:54.138Z,29.50
2022-10-19T08:08:54.219Z,33.10
2022-10-19T08:09:54.525Z,26.70
2022-10-19T08:10:54.139Z,21.80
2022-10-19T08:11:54.118Z,24.00
2022-10-19T08:12:54.110Z,27.90
2022-10-19T08:13:54.100Z,24.50
2022-10-19T08:14:54.106Z,23.50
2022-10-19T08:15:54.095Z,26.90
2022-10-19T08:16:54.086Z,21.30
2022-10-19T08:17:54.087Z,23.20
2022-10-19T08:18:54.087Z,24.90
2022-10-19T08:19:54.494Z,23.00
2022-10-19T08:20:54.057Z,21.30
2022-10-19T08:21:54.049Z,24.70
2022-10-19T08:22:57.938Z,24.00
2022-10-19T08:23:55.037Z,21.20
2022-10-19T08:24:54.033Z,21.30
2022-10-19T08:25:54.024Z,19.60
2022-10-19T08:26:54.246Z,22.40
2022-10-19T08:27:54.008Z,23.90
2022-10-19T08:28:53.990Z,20.90
2022-10-19T08:29:54.002Z,19.60
2022-10-19T08:30:53.987Z,17.40
2022-10-19T08:31:54.076Z,19.50
2022-10-19T08:32:53.971Z,18.00
2022-10-19T08:33:53.962Z,17.50
2022-10-19T08:34:53.970Z,14.90
2022-10-19T08:35:53.980Z,17.00
2022-10-19T08:36:53.960Z,20.30
2022-10-19T08:37:54.343Z,22.80
2022-10-19T08:38:53.956Z,17.50
2022-10-19T08:39:53.948Z,21.70
2022-10-19T08:40:53.916Z,17.20
2022-10-19T08:41:54.769Z,17.40
2022-10-19T08:42:53.905Z,18.70
2022-10-19T08:43:53.897Z,17.40
2022-10-19T08:44:53.897Z,16.50
2022-10-19T08:45:53.883Z,14.40
2022-10-19T08:46:53.889Z,15.60
2022-10-19T08:47:53.869Z,12.60
2022-10-19T08:48:53.863Z,14.30
2022-10-19T08:49:54.164Z,14.90
2022-10-19T08:50:53.855Z,16.60
2022-10-19T08:51:53.834Z,12.90
2022-10-19T08:52:53.837Z,12.70
2022-10-19T08:53:53.824Z,13.80
2022-10-19T08:54:53.844Z,13.20
2022-10-19T08:55:54.132Z,15.10
2022-10-19T08:56:53.821Z,13.90
2022-10-19T08:57:53.797Z,11.60
2022-10-19T08:58:53.798Z,12.40
2022-10-19T08:59:53.793Z,11.40
2022-10-19T09:00:53.792Z,11.40
2022-10-19T09:01:53.771Z,10.80
2022-10-19T09:02:53.768Z,11.20
2022-10-19T09:03:56.207Z,10.70
2022-10-19T09:04:53.771Z,11.70
2022-10-19T09:05:53.767Z,8.80
2022-10-19T09:06:53.734Z,8.70
2022-10-19T09:07:53.730Z,8.70
2022-10-19T09:08:53.806Z,7.00
2022-10-19T09:09:53.742Z,12.30
2022-10-19T09:10:53.771Z,12.60
2022-10-19T09:11:53.700Z,10.00
2022-10-19T09:12:56.377Z,9.90
2022-10-19T09:14:04.727Z,10.90
2022-10-19T09:14:54.700Z,11.20
2022-10-19T09:15:53.674Z,9.20
2022-10-19T09:16:53.710Z,11.20
2022-10-19T09:17:53.662Z,9.50
2022-10-19T09:19:53.642Z,7.70
2022-10-19T09:20:54.066Z,9.30
2022-10-19T09:21:53.625Z,10.90
2022-10-19T09:22:53.626Z,8.70
2022-10-19T09:23:53.621Z,8.70
2022-10-19T09:24:53.610Z,10.10
2022-10-19T09:25:53.616Z,8.70
2022-10-19T09:26:53.623Z,8.00
2022-10-19T09:27:53.664Z,12.20
2022-10-19T09:28:53.582Z,9.90
2022-10-19T09:29:53.569Z,11.70
2022-10-19T09:30:53.577Z,9.50
2022-10-19T09:31:53.612Z,9.10
2022-10-19T09:32:53.642Z,9.60
2022-10-19T09:33:53.995Z,9.70
2022-10-19T09:34:53.541Z,8.30
2022-10-19T09:35:53.569Z,6.90
2022-10-19T09:36:53.623Z,9.30
2022-10-19T09:37:53.559Z,7.10
2022-10-19T09:38:53.522Z,9.70
2022-10-19T09:39:54.972Z,11.10
2022-10-19T09:40:53.500Z,9.50
2022-10-19T09:41:53.808Z,8.80
2022-10-19T09:42:54.469Z,13.00
2022-10-19T09:43:53.913Z,9.30
2022-10-19T09:44:53.467Z,7.40
2022-10-19T09:45:53.466Z,11.00
2022-10-19T09:46:53.482Z,9.00
2022-10-19T09:47:53.453Z,9.20
2022-10-19T09:48:53.523Z,8.70
2022-10-19T09:49:53.990Z,8.90
2022-10-19T09:50:53.528Z,8.80
2022-10-19T09:51:53.440Z,7.80
2022-10-19T09:52:53.480Z,8.30
2022-10-19T09:53:54.564Z,10.30
2022-10-19T09:54:53.437Z,10.30
2022-10-19T09:55:53.927Z,8.50
2022-10-19T09:56:53.382Z,9.40
2022-10-19T09:57:53.398Z,7.40
2022-10-19T09:58:53.402Z,7.00
2022-10-19T09:59:53.354Z,7.70
2022-10-19T10:00:53.882Z,7.30
2022-10-19T10:01:53.440Z,8.90
2022-10-19T10:02:53.370Z,8.30
2022-10-19T10:03:55.871Z,8.80
2022-10-19T10:04:53.377Z,8.90
2022-10-19T10:05:54.468Z,8.60
2022-10-19T10:06:53.713Z,9.60
2022-10-19T10:07:53.805Z,7.90
2022-10-19T10:08:53.375Z,7.80
2022-10-19T10:09:53.342Z,9.20
2022-10-19T10:10:53.301Z,6.70
2022-10-19T10:12:53.314Z,8.00
2022-10-19T10:13:53.296Z,9.20
2022-10-19T10:14:53.282Z,9.40
2022-10-19T10:15:53.277Z,6.40
2022-10-19T10:16:53.239Z,7.10
2022-10-19T10:17:53.261Z,7.40
2022-10-19T10:18:53.246Z,8.30
2022-10-19T10:19:53.207Z,6.80
2022-10-19T10:20:53.302Z,8.70
2022-10-19T10:21:53.258Z,8.10
2022-10-19T10:22:53.232Z,4.90
2022-10-19T10:23:53.230Z,6.30
2022-10-19T10:24:53.282Z,7.30
2022-10-19T10:25:53.255Z,6.60
2022-10-19T10:26:53.232Z,5.70
2022-10-19T10:27:53.247Z,6.30
2022-10-19T10:28:53.890Z,6.30
2022-10-19T10:29:53.213Z,6.70
2022-10-19T10:30:53.211Z,10.00
2022-10-19T10:31:53.185Z,6.50
2022-10-19T10:32:53.178Z,6.90
2022-10-19T10:34:56.904Z,6.20
2022-10-19T10:35:54.120Z,5.30
2022-10-19T10:36:53.195Z,11.20
2022-10-19T10:37:53.119Z,7.70
2022-10-19T10:38:53.250Z,8.50
2022-10-19T10:39:53.110Z,8.00
2022-10-19T10:40:53.139Z,6.30
2022-10-19T10:41:53.110Z,4.80
2022-10-19T10:42:53.127Z,6.50
2022-10-19T10:43:53.257Z,6.60
2022-10-19T10:44:53.091Z,6.70
2022-10-19T10:45:53.063Z,7.50
2022-10-19T10:46:53.072Z,4.90
2022-10-19T10:47:53.063Z,6.10
2022-10-19T10:48:53.484Z,5.70
2022-10-19T10:49:53.112Z,7.50
2022-10-19T10:50:53.081Z,4.30
2022-10-19T10:51:53.258Z,5.10
2022-10-19T10:52:53.032Z,5.40
2022-10-19T10:53:52.997Z,8.90
2022-10-19T10:54:53.066Z,5.40
2022-10-19T10:55:53.075Z,8.10
2022-10-19T10:56:53.046Z,6.10
2022-10-19T10:57:52.972Z,11.40
2022-10-19T10:58:53.222Z,7.70
2022-10-19T10:59:53.004Z,8.10
2022-10-19T11:00:53.056Z,6.70
2022-10-19T11:01:53.019Z,8.10
2022-10-19T11:02:52.995Z,5.90
2022-10-19T11:03:53.032Z,7.40
2022-10-19T11:04:52.990Z,6.80
2022-10-19T11:05:52.977Z,6.20
2022-10-19T11:06:52.943Z,6.60
2022-10-19T11:07:52.929Z,6.10
2022-10-19T11:08:52.956Z,6.50
2022-10-19T11:09:52.962Z,7.20
2022-10-19T11:10:52.878Z,8.40
2022-10-19T11:11:52.895Z,6.40
2022-10-19T11:12:53.495Z,5.10
2022-10-19T11:13:52.866Z,7.10
2022-10-19T11:14:52.874Z,6.70
2022-10-19T11:15:52.896Z,5.80
2022-10-19T11:16:52.888Z,4.40
2022-10-19T11:17:52.863Z,6.60
2022-10-19T11:18:52.859Z,5.00
2022-10-19T11:19:52.911Z,7.70
2022-10-19T11:20:52.885Z,7.50
2022-10-19T11:21:52.819Z,6.50
2022-10-19T11:22:52.850Z,5.40
2022-10-19T11:23:52.867Z,5.60
2022-10-19T11:24:52.834Z,3.60
2022-10-19T11:25:52.999Z,3.80
2022-10-19T11:26:52.770Z,3.90
2022-10-19T11:27:52.894Z,5.30
2022-10-19T11:28:52.794Z,5.40
2022-10-19T11:29:52.893Z,3.70
2022-10-19T11:30:52.751Z,4.20
2022-10-19T11:31:52.803Z,6.00
2022-10-19T11:32:52.739Z,3.20
2022-10-19T11:33:52.749Z,4.40
2022-10-19T11:34:52.820Z,6.60
2022-10-19T11:35:52.745Z,4.60
2022-10-19T11:36:52.746Z,4.00
2022-10-19T11:38:17.335Z,4.00
2022-10-19T11:38:53.733Z,4.20
2022-10-19T11:39:52.777Z,4.80
2022-10-19T11:41:16.416Z,7.60
2022-10-19T11:41:53.696Z,5.80
2022-10-19T11:42:52.832Z,4.60
2022-10-19T11:43:52.724Z,4.90
2022-10-19T11:44:52.677Z,4.20
2022-10-19T11:45:52.677Z,4.40
2022-10-19T11:46:52.647Z,2.20
2022-10-19T11:47:52.731Z,3.60
2022-10-19T11:48:54.808Z,2.60
2022-10-19T11:49:52.657Z,3.20
2022-10-19T11:50:54.567Z,6.30
2022-10-19T11:51:53.632Z,4.20
2022-10-19T11:52:52.604Z,2.50
2022-10-19T11:53:52.645Z,4.20
2022-10-19T11:54:52.634Z,3.50
2022-10-19T11:55:52.627Z,4.00
2022-10-19T11:57:04.960Z,4.00
2022-10-19T11:57:53.568Z,4.70
2022-10-19T11:58:52.570Z,2.50
2022-10-19T11:59:52.660Z,3.30
2022-10-19T12:00:52.553Z,6.60
2022-10-19T12:01:52.595Z,2.40
2022-10-19T12:02:52.559Z,2.80
2022-10-19T12:03:52.542Z,5.20
2022-10-19T12:04:52.529Z,4.60
2022-10-19T12:05:52.564Z,4.10
2022-10-19T12:06:53.001Z,2.80
2022-10-19T12:07:52.525Z,4.50
2022-10-19T12:08:55.354Z,2.50
2022-10-19T12:09:52.543Z,2.40
2022-10-19T12:10:52.497Z,2.30
2022-10-19T12:11:52.472Z,3.30
2022-10-19T12:12:52.564Z,4.30
2022-10-19T12:13:52.521Z,4.40
2022-10-19T12:14:52.487Z,4.00
2022-10-19T12:15:53.672Z,2.30
2022-10-19T12:16:52.436Z,1.10
2022-10-19T12:17:52.490Z,2.70
2022-10-19T12:18:52.426Z,4.00
2022-10-19T12:19:53.068Z,2.80
2022-10-19T12:20:52.451Z,3.60
2022-10-19T12:21:52.407Z,3.50
2022-10-19T12:22:52.460Z,3.10
2022-10-19T12:23:52.384Z,2.70
2022-10-19T12:24:52.409Z,4.20
2022-10-19T12:25:52.378Z,5.60
2022-10-19T12:26:52.463Z,6.20
2022-10-19T12:27:52.379Z,2.90
2022-10-19T12:28:52.385Z,5.00
2022-10-19T12:29:52.356Z,5.50
2022-10-19T12:30:52.428Z,4.70
2022-10-19T12:31:52.352Z,4.70
2022-10-19T12:32:54.258Z,3.60
2022-10-19T12:33:52.410Z,2.50
2022-10-19T12:34:52.699Z,6.20
2022-10-19T12:35:52.315Z,3.60
2022-10-19T12:36:52.338Z,4.40
2022-10-19T12:37:52.293Z,3.00
2022-10-19T12:39:00.087Z,3.60
2022-10-19T12:39:53.341Z,2.30
2022-10-19T12:40:52.276Z,4.90
2022-10-19T12:41:52.283Z,3.50
2022-10-19T12:42:52.310Z,5.00
2022-10-19T12:43:52.521Z,3.80
2022-10-19T12:44:54.966Z,3.80
2022-10-19T12:45:53.312Z,3.60
2022-10-19T12:46:53.080Z,5.50
2022-10-19T12:47:52.280Z,6.00
2022-10-19T12:48:52.307Z,5.30
2022-10-19T12:49:52.267Z,5.40
2022-10-19T12:50:52.285Z,3.50
2022-10-19T12:51:52.281Z,4.20
2022-10-19T12:52:52.230Z,4.10
2022-10-19T12:53:52.193Z,3.70
2022-10-19T12:54:52.279Z,4.60
2022-10-19T12:55:52.198Z,4.30
2022-10-19T12:56:52.164Z,5.00